createdAt,value
2019-04-26T00:00:07.536Z,1009.2193
2019-04-26T00:00:56.091Z,1009.2413
2019-04-26T00:01:55.462Z,1009.2837
2019-04-26T00:02:07.448Z,1009.3126
2019-04-26T00:03:07.756Z,1009.3449
2019-04-26T00:03:55.526Z,1009.3161
2019-04-26T00:04:07.708Z,1009.3403
2019-04-26T00:04:55.756Z,1009.3361
2019-04-26T00:06:08.863Z,1009.5036
2019-04-26T00:06:55.814Z,1009.4873
2019-04-26T00:08:07.207Z,1009.4465
2019-04-26T00:09:06.735Z,1009.4494
2019-04-26T00:10:06.181Z,1009.4151
2019-04-26T00:11:05.537Z,1009.3515
2019-04-26T00:11:18.165Z,1009.3487
2019-04-26T00:12:06.345Z,1009.3332
2019-04-26T00:13:05.649Z,1009.3602
2019-04-26T00:13:18.305Z,1009.3706
2019-04-26T00:14:05.964Z,1009.3685
2019-04-26T00:15:17.262Z,1009.4343
2019-04-26T00:16:16.805Z,1009.4398
2019-04-26T00:17:16.139Z,1009.3911
2019-04-26T00:18:15.543Z,1009.3126
2019-04-26T00:18:27.401Z,1009.3099
2019-04-26T00:19:26.797Z,1009.2895
2019-04-26T00:20:26.300Z,1009.3077
2019-04-26T00:21:25.812Z,1009.2712
2019-04-26T00:22:37.051Z,1009.2701
2019-04-26T00:23:36.667Z,1009.2776
2019-04-26T00:24:36.076Z,1009.281
2019-04-26T00:25:35.531Z,1009.3166
2019-04-26T00:25:47.513Z,1009.2973
2019-04-26T00:26:47.053Z,1009.3635
2019-04-26T00:27:46.473Z,1009.3624
2019-04-26T00:28:45.880Z,1009.4286
2019-04-26T00:29:57.273Z,1009.4533
2019-04-26T00:30:56.681Z,1009.4821
2019-04-26T00:31:56.150Z,1009.464
2019-04-26T00:32:55.550Z,1009.46
2019-04-26T00:33:07.475Z,1009.402
2019-04-26T00:34:07.100Z,1009.3714
2019-04-26T00:35:06.678Z,1009.3184
2019-04-26T00:36:06.240Z,1009.3142
2019-04-26T00:37:05.590Z,1009.3412
2019-04-26T00:37:17.959Z,1009.3545
2019-04-26T00:38:16.858Z,1009.4318
2019-04-26T00:39:16.312Z,1009.4458
2019-04-26T00:40:16.197Z,1009.488
2019-04-26T00:41:27.109Z,1009.407
2019-04-26T00:42:26.689Z,1009.4423
2019-04-26T00:43:26.177Z,1009.3878
2019-04-26T00:44:25.544Z,1009.3887
2019-04-26T00:44:37.372Z,1009.3457
2019-04-26T00:45:26.036Z,1009.3182
2019-04-26T00:46:25.424Z,1009.3546
2019-04-26T00:46:37.391Z,1009.3353
2019-04-26T00:47:36.748Z,1009.3604
2019-04-26T00:48:36.268Z,1009.3437
2019-04-26T00:49:43.322Z,1009.3446
2019-04-26T00:50:36.323Z,1009.4431
2019-04-26T00:51:35.908Z,1009.4038
2019-04-26T00:52:47.213Z,1009.3742
2019-04-26T00:53:46.611Z,1009.4195
2019-04-26T00:54:47.017Z,1009.3812
2019-04-26T00:55:46.723Z,1009.3481
2019-04-26T00:56:46.212Z,1009.3704
2019-04-26T00:57:45.514Z,1009.3217
2019-04-26T00:57:57.373Z,1009.359
2019-04-26T00:58:56.771Z,1009.2794
2019-04-26T00:59:56.182Z,1009.2293
2019-04-26T01:00:55.905Z,1009.2262
2019-04-26T01:02:07.174Z,1009.1736
2019-04-26T01:03:06.819Z,1009.1175
2019-04-26T01:04:06.200Z,1009.1109
2019-04-26T01:05:05.687Z,1009.1188
2019-04-26T01:05:18.807Z,1009.0973
2019-04-26T01:06:06.156Z,1009.1179
2019-04-26T01:07:05.456Z,1009.1237
2019-04-26T01:07:17.318Z,1009.1546
2019-04-26T01:08:17.055Z,1009.1701
2019-04-26T01:09:17.358Z,1009.1669
2019-04-26T01:10:17.668Z,1009.1665
2019-04-26T01:11:17.658Z,1009.1484
2019-04-26T01:12:16.752Z,1009.1624
2019-04-26T01:13:17.739Z,1009.1565
2019-04-26T01:14:17.845Z,1009.153
2019-04-26T01:15:18.606Z,1009.1748
2019-04-26T01:16:17.271Z,1009.1838
2019-04-26T01:17:17.508Z,1009.1663
2019-04-26T01:18:05.583Z,1009.1358
2019-04-26T01:18:18.188Z,1009.1433
2019-04-26T01:19:17.076Z,1009.0795
2019-04-26T01:20:17.686Z,1009.0982
2019-04-26T01:21:17.180Z,1009.1704
2019-04-26T01:22:16.802Z,1009.1565
2019-04-26T01:23:17.365Z,1009.0868
2019-04-26T01:24:16.727Z,1009.0441
2019-04-26T01:25:17.498Z,1008.9954
2019-04-26T01:26:16.913Z,1009.0401
2019-04-26T01:27:18.098Z,1008.996
2019-04-26T01:28:05.509Z,1008.9987
2019-04-26T01:28:18.441Z,1009.0103
2019-04-26T01:29:05.893Z,1008.9714
2019-04-26T01:30:18.226Z,1008.9772
2019-04-26T01:31:05.640Z,1008.9737
2019-04-26T01:31:18.456Z,1009.0145
2019-04-26T01:32:07.003Z,1009.0923
2019-04-26T01:33:06.378Z,1009.251
2019-04-26T01:34:05.815Z,1009.3519
2019-04-26T01:35:17.834Z,1009.3573
2019-04-26T01:36:12.689Z,1009.2832
2019-04-26T01:37:05.909Z,1009.2231
2019-04-26T01:38:17.201Z,1009.2238
2019-04-26T01:39:05.699Z,1009.1883
2019-04-26T01:40:16.994Z,1009.2955
2019-04-26T01:41:16.461Z,1009.3154
2019-04-26T01:42:15.784Z,1009.3994
2019-04-26T01:43:27.012Z,1009.3867
2019-04-26T01:44:26.609Z,1009.4321
2019-04-26T01:45:25.857Z,1009.46
2019-04-26T01:46:37.252Z,1009.4343
2019-04-26T01:47:36.643Z,1009.4475
2019-04-26T01:48:36.066Z,1009.3961
2019-04-26T01:49:35.481Z,1009.3897
2019-04-26T01:49:47.395Z,1009.4076
2019-04-26T01:50:46.901Z,1009.4168
2019-04-26T01:51:46.391Z,1009.4003
2019-04-26T01:52:45.759Z,1009.4421
2019-04-26T01:53:57.058Z,1009.4364
2019-04-26T01:54:56.601Z,1009.3988
2019-04-26T01:55:55.907Z,1009.3922
2019-04-26T01:57:07.100Z,1009.4096
2019-04-26T01:58:06.537Z,1009.4248
2019-04-26T01:59:05.916Z,1009.4378
2019-04-26T02:00:17.235Z,1009.4676
2019-04-26T02:01:16.607Z,1009.5179
2019-04-26T02:02:16.094Z,1009.5125
2019-04-26T02:03:15.466Z,1009.5137
2019-04-26T02:03:27.792Z,1009.5477
2019-04-26T02:05:15.465Z,1009.5964
2019-04-26T02:05:28.003Z,1009.6065
2019-04-26T02:06:31.054Z,1009.5665
2019-04-26T02:07:28.308Z,1009.6096
2019-04-26T02:08:15.757Z,1009.6542
2019-04-26T02:09:26.918Z,1009.7066
2019-04-26T02:10:37.318Z,1009.7066
2019-04-26T02:11:36.765Z,1009.7115
2019-04-26T02:12:37.118Z,1009.7203
2019-04-26T02:13:36.579Z,1009.6791
2019-04-26T02:14:35.977Z,1009.7047
2019-04-26T02:15:35.473Z,1009.6607
2019-04-26T02:15:47.310Z,1009.6459
2019-04-26T02:16:46.953Z,1009.6411
2019-04-26T02:17:46.236Z,1009.6558
2019-04-26T02:18:45.789Z,1009.6543
2019-04-26T02:19:57.020Z,1009.6619
2019-04-26T02:20:56.391Z,1009.6343
2019-04-26T02:21:55.924Z,1009.5643
2019-04-26T02:23:07.089Z,1009.5036
2019-04-26T02:24:06.487Z,1009.4906
2019-04-26T02:25:05.879Z,1009.4603
2019-04-26T02:26:17.113Z,1009.5106
2019-04-26T02:27:05.597Z,1009.4796
2019-04-26T02:28:17.003Z,1009.4888
2019-04-26T02:29:16.542Z,1009.481
2019-04-26T02:30:15.979Z,1009.5328
2019-04-26T02:31:28.422Z,1009.5734
2019-04-26T02:32:16.842Z,1009.5949
2019-04-26T02:33:16.343Z,1009.6046
2019-04-26T02:34:15.604Z,1009.5717
2019-04-26T02:34:29.374Z,1009.5415
2019-04-26T02:35:15.929Z,1009.5954
2019-04-26T02:36:44.711Z,1009.5704
2019-04-26T02:37:15.670Z,1009.5728
2019-04-26T02:38:27.780Z,1009.6414
2019-04-26T02:39:15.636Z,1009.6496
2019-04-26T02:40:28.038Z,1009.632
2019-04-26T02:41:28.037Z,1009.679
2019-04-26T02:42:15.934Z,1009.6741
2019-04-26T02:43:28.530Z,1009.6448
2019-04-26T02:44:15.520Z,1009.6984
2019-04-26T02:44:28.778Z,1009.705
2019-04-26T02:45:15.917Z,1009.7365
2019-04-26T02:46:29.256Z,1009.7476
2019-04-26T02:47:15.711Z,1009.7871
2019-04-26T02:48:28.472Z,1009.7935
2019-04-26T02:49:15.511Z,1009.8339
2019-04-26T02:49:29.236Z,1009.8292
2019-04-26T02:50:15.895Z,1009.8747
2019-04-26T02:51:28.419Z,1009.9196
2019-04-26T02:52:15.459Z,1009.8957
2019-04-26T02:52:27.848Z,1009.9129
2019-04-26T02:53:15.759Z,1009.8632
2019-04-26T02:54:27.808Z,1009.8587
2019-04-26T02:55:15.538Z,1009.8814
2019-04-26T02:55:27.869Z,1009.7941
2019-04-26T02:56:15.858Z,1009.8439
2019-04-26T02:57:27.917Z,1009.7672
2019-04-26T02:58:15.627Z,1009.7729
2019-04-26T02:59:28.442Z,1009.7988
2019-04-26T03:00:15.718Z,1009.8311
2019-04-26T03:01:16.101Z,1009.7665
2019-04-26T03:02:15.551Z,1009.7617
2019-04-26T03:02:28.707Z,1009.7634
2019-04-26T03:03:15.930Z,1009.7312
2019-04-26T03:04:28.913Z,1009.716
2019-04-26T03:05:15.435Z,1009.7036
2019-04-26T03:05:28.466Z,1009.7086
2019-04-26T03:06:15.828Z,1009.7687
2019-04-26T03:07:27.240Z,1009.8049
2019-04-26T03:08:26.815Z,1009.7947
2019-04-26T03:09:26.229Z,1009.8341
2019-04-26T03:10:25.656Z,1009.8662
2019-04-26T03:10:38.575Z,1009.8756
2019-04-26T03:11:25.945Z,1009.8811
2019-04-26T03:12:37.578Z,1009.8865
2019-04-26T03:13:25.710Z,1009.889
2019-04-26T03:14:38.008Z,1009.9093
2019-04-26T03:15:27.264Z,1009.8786
2019-04-26T03:16:16.966Z,1009.8753
2019-04-26T03:17:06.017Z,1009.8704
2019-04-26T03:18:06.904Z,1009.9414
2019-04-26T03:18:55.522Z,1009.9489
2019-04-26T03:19:07.389Z,1009.9836
2019-04-26T03:20:06.910Z,1009.9968
2019-04-26T03:21:06.349Z,1009.9841
2019-04-26T03:22:05.836Z,1010.0186
2019-04-26T03:23:17.132Z,1010.0003
2019-04-26T03:24:16.533Z,1009.9735
2019-04-26T03:25:15.922Z,1009.9543
2019-04-26T03:26:27.331Z,1009.9779
2019-04-26T03:27:26.773Z,1009.9071
2019-04-26T03:28:26.207Z,1009.8962
2019-04-26T03:29:25.731Z,1009.8776
2019-04-26T03:30:42.137Z,1009.9207
2019-04-26T03:31:45.577Z,1009.9174
2019-04-26T03:32:25.772Z,1009.8775
2019-04-26T03:33:42.785Z,1009.827
2019-04-26T03:34:26.546Z,1009.8251
2019-04-26T03:35:25.832Z,1009.8244
2019-04-26T03:36:40.335Z,1009.7892
2019-04-26T03:37:25.637Z,1009.7766
2019-04-26T03:37:38.245Z,1009.8052
2019-04-26T03:38:25.843Z,1009.8214
2019-04-26T03:39:39.181Z,1009.8099
2019-04-26T03:40:25.764Z,1009.8659
2019-04-26T03:41:38.552Z,1009.8527
2019-04-26T03:42:25.403Z,1009.88
2019-04-26T03:42:38.743Z,1009.8717
2019-04-26T03:43:25.878Z,1009.9378
2019-04-26T03:44:38.429Z,1009.9307
2019-04-26T03:45:25.549Z,1009.9937
2019-04-26T03:45:38.882Z,1009.9762
2019-04-26T03:46:25.866Z,1010.014
2019-04-26T03:47:38.472Z,1010.037
2019-04-26T03:48:25.558Z,1010.1406
2019-04-26T03:48:39.270Z,1010.0778
2019-04-26T03:49:26.114Z,1010.1579
2019-04-26T03:50:25.557Z,1010.1478
2019-04-26T03:50:39.026Z,1010.1501
2019-04-26T03:51:25.993Z,1010.1701
2019-04-26T03:52:39.187Z,1010.1213
2019-04-26T03:53:25.581Z,1010.132
2019-04-26T03:53:38.318Z,1010.116
2019-04-26T03:54:26.025Z,1010.1306
2019-04-26T03:55:25.429Z,1010.1068
2019-04-26T03:55:38.200Z,1010.0935
2019-04-26T03:56:25.763Z,1010.1228
2019-04-26T03:57:38.726Z,1010.0666
2019-04-26T03:58:25.577Z,1010.0798
2019-04-26T03:59:38.807Z,1010.0781
2019-04-26T04:00:25.486Z,1010.0285
2019-04-26T04:00:38.878Z,1010.0339
2019-04-26T04:01:26.006Z,1009.9938
2019-04-26T04:02:38.785Z,1010.028
2019-04-26T04:03:26.883Z,1010.061
2019-04-26T04:04:26.209Z,1010.0164
2019-04-26T04:05:25.507Z,1009.9916
2019-04-26T04:05:39.274Z,1009.9956
2019-04-26T04:06:26.076Z,1009.9512
2019-04-26T04:07:36.577Z,1009.9626
2019-04-26T04:08:26.842Z,1009.939
2019-04-26T04:09:26.275Z,1009.9489
2019-04-26T04:10:26.971Z,1009.9897
2019-04-26T04:11:16.002Z,1009.9692
2019-04-26T04:12:15.826Z,1009.9758
2019-04-26T04:13:27.011Z,1010.0095
2019-04-26T04:14:38.221Z,1009.9899
2019-04-26T04:15:25.702Z,1009.9891
2019-04-26T04:16:26.346Z,1010.0006
2019-04-26T04:17:26.727Z,1010.0496
2019-04-26T04:18:15.852Z,1010.0343
2019-04-26T04:19:15.997Z,1010.0656
2019-04-26T04:20:15.834Z,1010.1032
2019-04-26T04:21:27.064Z,1010.1187
2019-04-26T04:22:26.610Z,1010.1143
2019-04-26T04:23:25.881Z,1010.0968
2019-04-26T04:25:25.491Z,1010.115
2019-04-26T04:25:37.958Z,1010.1233
2019-04-26T04:26:25.909Z,1010.1068
2019-04-26T04:27:38.068Z,1010.1876
2019-04-26T04:28:25.605Z,1010.1795
2019-04-26T04:29:40.708Z,1010.2117
2019-04-26T04:30:25.561Z,1010.1978
2019-04-26T04:30:38.632Z,1010.1802
2019-04-26T04:31:25.855Z,1010.2034
2019-04-26T04:32:39.598Z,1010.1853
2019-04-26T04:33:25.827Z,1010.0956
2019-04-26T04:34:36.971Z,1010.1168
2019-04-26T04:35:36.463Z,1010.0901
2019-04-26T04:36:35.814Z,1010.0879
2019-04-26T04:38:03.820Z,1010.0534
2019-04-26T04:38:35.613Z,1010.0324
2019-04-26T04:38:48.247Z,1010.0731
2019-04-26T04:39:35.889Z,1010.0755
2019-04-26T04:40:47.270Z,1010.1242
2019-04-26T04:41:46.942Z,1010.1135
2019-04-26T04:42:47.878Z,1010.1082
2019-04-26T04:43:48.701Z,1010.1365
2019-04-26T04:44:47.796Z,1010.1574
2019-04-26T04:45:48.000Z,1010.109
2019-04-26T04:46:47.959Z,1010.0921
2019-04-26T04:47:36.203Z,1010.0875
2019-04-26T04:48:35.711Z,1010.0232
2019-04-26T04:49:48.884Z,1009.9689
2019-04-26T04:50:35.597Z,1009.9888
2019-04-26T04:50:48.774Z,1010.0307
2019-04-26T04:51:35.997Z,1009.9912
2019-04-26T04:52:35.504Z,1009.9923
2019-04-26T04:52:48.162Z,1010.0412
2019-04-26T04:53:35.875Z,1010.0045
2019-04-26T04:55:01.343Z,1009.9689
2019-04-26T04:55:35.625Z,1010.0323
2019-04-26T04:55:47.898Z,1010.0576
2019-04-26T04:56:35.999Z,1010.0812
2019-04-26T04:57:48.055Z,1010.1497
2019-04-26T04:58:35.575Z,1010.1986
2019-04-26T04:58:48.049Z,1010.2203
2019-04-26T04:59:36.041Z,1010.3058
2019-04-26T05:00:36.477Z,1010.4081
2019-04-26T05:01:35.800Z,1010.5023
2019-04-26T05:02:47.146Z,1010.542
2019-04-26T05:03:46.920Z,1010.5712
2019-04-26T05:04:46.834Z,1010.565
2019-04-26T05:05:45.417Z,1010.5186
2019-04-26T05:06:07.121Z,1010.4707
2019-04-26T05:06:46.937Z,1010.5112
2019-04-26T05:07:47.243Z,1010.4671
2019-04-26T05:08:48.915Z,1010.525
2019-04-26T05:09:47.364Z,1010.6
2019-04-26T05:10:47.576Z,1010.631
2019-04-26T05:11:47.666Z,1010.6855
2019-04-26T05:12:46.536Z,1010.7316
2019-04-26T05:13:46.344Z,1010.7249
2019-04-26T05:14:57.083Z,1010.7732
2019-04-26T05:15:56.540Z,1010.7279
2019-04-26T05:16:56.160Z,1010.7218
2019-04-26T05:18:07.322Z,1010.7453
2019-04-26T05:19:06.770Z,1010.7677
2019-04-26T05:20:06.208Z,1010.7736
2019-04-26T05:21:05.572Z,1010.8192
2019-04-26T05:21:17.484Z,1010.8157
2019-04-26T05:22:16.916Z,1010.8688
2019-04-26T05:23:16.295Z,1010.879
2019-04-26T05:24:15.664Z,1010.8615
2019-04-26T05:26:15.513Z,1010.8428
2019-04-26T05:26:27.437Z,1010.8082
2019-04-26T05:27:26.843Z,1010.8629
2019-04-26T05:28:26.251Z,1010.9232
2019-04-26T05:29:25.731Z,1011.0068
2019-04-26T05:30:37.065Z,1010.9689
2019-04-26T05:31:35.466Z,1011.0353
2019-04-26T05:31:49.589Z,1011.0007
2019-04-26T05:32:35.771Z,1011.0046
2019-04-26T05:33:47.702Z,1011.0187
2019-04-26T05:34:35.519Z,1010.9949
2019-04-26T05:34:48.937Z,1010.9942
2019-04-26T05:35:35.890Z,1011.0134
2019-04-26T05:36:47.731Z,1011.0446
2019-04-26T05:37:37.110Z,1011.0421
2019-04-26T05:38:35.936Z,1011.0324
2019-04-26T05:39:47.792Z,1011.0421
2019-04-26T05:40:47.026Z,1011.0363
2019-04-26T05:41:48.102Z,1011.0234
2019-04-26T05:42:48.249Z,1011.0061
2019-04-26T05:43:47.425Z,1011.015
2019-04-26T05:44:48.425Z,1011.0526
2019-04-26T05:45:46.932Z,1011.0248
2019-04-26T05:46:46.351Z,1011.0856
2019-04-26T05:47:45.764Z,1011.0457
2019-04-26T05:48:57.830Z,1011.0593
2019-04-26T05:49:57.957Z,1011.0379
2019-04-26T05:50:56.534Z,1011.0988
2019-04-26T05:51:55.930Z,1011.0848
2019-04-26T05:52:55.457Z,1011.0728
2019-04-26T05:53:07.325Z,1011.1087
2019-04-26T05:54:07.011Z,1011.0601
2019-04-26T05:55:06.438Z,1010.9946
2019-04-26T05:56:05.737Z,1010.9802
2019-04-26T05:58:05.476Z,1011.0068
2019-04-26T05:58:17.337Z,1010.9865
2019-04-26T05:59:16.763Z,1010.979
2019-04-26T06:00:16.074Z,1011.0227
2019-04-26T06:01:15.530Z,1010.9431
2019-04-26T06:01:27.375Z,1010.9154
2019-04-26T06:02:27.049Z,1010.9195
2019-04-26T06:03:26.409Z,1010.8778
2019-04-26T06:04:25.841Z,1010.8656
2019-04-26T06:05:37.106Z,1010.859
2019-04-26T06:06:36.637Z,1010.8826
2019-04-26T06:07:36.059Z,1010.8883
2019-04-26T06:08:35.439Z,1010.9216
2019-04-26T06:08:47.277Z,1010.9067
2019-04-26T06:09:35.861Z,1010.9343
2019-04-26T06:10:47.116Z,1010.9592
2019-04-26T06:11:46.627Z,1011.0006
2019-04-26T06:12:46.170Z,1011.061
2019-04-26T06:13:46.744Z,1011.0072
2019-04-26T06:14:46.988Z,1011.0306
2019-04-26T06:15:47.267Z,1011.0108
2019-04-26T06:16:46.666Z,1011.023
2019-04-26T06:17:46.042Z,1011.0744
2019-04-26T06:18:45.453Z,1011.0424
2019-04-26T06:18:57.392Z,1011.0282
2019-04-26T06:19:57.294Z,1011.0509
2019-04-26T06:20:57.291Z,1011.0672
2019-04-26T06:21:56.699Z,1011.0518
2019-04-26T06:22:58.195Z,1011.056
2019-04-26T06:23:45.599Z,1011.0097
2019-04-26T06:23:57.835Z,1011.0328
2019-04-26T06:24:57.998Z,1011.0097
2019-04-26T06:25:45.545Z,1011.0134
2019-04-26T06:26:00.351Z,1011.0282
2019-04-26T06:26:45.890Z,1011.0126
2019-04-26T06:27:58.293Z,1011.0275
2019-04-26T06:28:45.621Z,1010.9637
2019-04-26T06:28:57.552Z,1011.0076
2019-04-26T06:29:57.150Z,1011.0067
2019-04-26T06:30:57.245Z,1010.9632
2019-04-26T06:31:55.997Z,1010.9519
2019-04-26T06:33:07.262Z,1010.8831
2019-04-26T06:34:06.690Z,1010.8961
2019-04-26T06:35:06.177Z,1010.8269
2019-04-26T06:36:05.592Z,1010.7656
2019-04-26T06:36:17.557Z,1010.7623
2019-04-26T06:37:16.967Z,1010.7076
2019-04-26T06:38:16.508Z,1010.6688
2019-04-26T06:39:15.935Z,1010.6736
2019-04-26T06:40:15.437Z,1010.6507
2019-04-26T06:40:27.276Z,1010.6724
2019-04-26T06:41:26.805Z,1010.6046
2019-04-26T06:42:26.431Z,1010.6239
2019-04-26T06:43:26.506Z,1010.5901
2019-04-26T06:44:37.160Z,1010.5485
2019-04-26T06:45:36.624Z,1010.5418
2019-04-26T06:46:36.064Z,1010.5926
2019-04-26T06:47:35.602Z,1010.6322
2019-04-26T06:47:47.447Z,1010.6529
2019-04-26T06:48:47.074Z,1010.7143
2019-04-26T06:49:47.043Z,1010.8158
2019-04-26T06:50:46.817Z,1010.8905
2019-04-26T06:51:46.504Z,1010.9527
2019-04-26T06:52:45.985Z,1010.9841
2019-04-26T06:53:46.733Z,1010.9693
2019-04-26T06:54:46.410Z,1011.0092
2019-04-26T06:55:45.840Z,1011.0054
2019-04-26T06:56:59.449Z,1011.0373
2019-04-26T06:57:45.607Z,1011.08
2019-04-26T06:57:59.334Z,1011.0665
2019-04-26T06:58:46.061Z,1011.0417
2019-04-26T06:59:45.445Z,1011.1164
2019-04-26T06:59:57.516Z,1011.1034
2019-04-26T07:00:57.553Z,1011.1737
2019-04-26T07:01:57.621Z,1011.1663
2019-04-26T07:02:57.505Z,1011.1395
2019-04-26T07:03:58.171Z,1011.161
2019-04-26T07:04:56.973Z,1011.1512
2019-04-26T07:05:56.570Z,1011.1196
2019-04-26T07:06:55.958Z,1011.0351
2019-04-26T07:07:55.413Z,1011.0845
2019-04-26T07:08:07.422Z,1011.1257
2019-04-26T07:09:06.881Z,1011.1042
2019-04-26T07:10:06.436Z,1011.1455
2019-04-26T07:11:06.835Z,1011.1398
2019-04-26T07:12:07.187Z,1011.0979
2019-04-26T07:13:07.793Z,1011.1077
2019-04-26T07:14:07.109Z,1011.2292
2019-04-26T07:15:07.856Z,1011.2807
2019-04-26T07:16:19.377Z,1011.3512
2019-04-26T07:16:55.694Z,1011.3758
2019-04-26T07:18:07.160Z,1011.3993
2019-04-26T07:19:06.692Z,1011.3699
2019-04-26T07:20:07.684Z,1011.4166
2019-04-26T07:21:07.012Z,1011.4752
2019-04-26T07:22:06.444Z,1011.465
2019-04-26T07:23:05.989Z,1011.4257
2019-04-26T07:24:17.261Z,1011.5083
2019-04-26T07:25:17.826Z,1011.5076
2019-04-26T07:26:17.222Z,1011.5102
2019-04-26T07:27:16.586Z,1011.5021
2019-04-26T07:28:16.096Z,1011.4726
2019-04-26T07:29:15.465Z,1011.3939
2019-04-26T07:29:27.363Z,1011.3883
2019-04-26T07:30:26.849Z,1011.3474
2019-04-26T07:31:15.620Z,1011.3227
2019-04-26T07:31:27.524Z,1011.2997
2019-04-26T07:32:26.954Z,1011.27
2019-04-26T07:33:26.341Z,1011.2912
2019-04-26T07:34:25.819Z,1011.2898
2019-04-26T07:35:37.245Z,1011.2896
2019-04-26T07:36:36.793Z,1011.2973
2019-04-26T07:37:36.331Z,1011.2455
2019-04-26T07:38:35.743Z,1011.2232
2019-04-26T07:39:47.153Z,1011.2138
2019-04-26T07:40:46.824Z,1011.2584
2019-04-26T07:41:46.252Z,1011.2744
2019-04-26T07:42:45.780Z,1011.2827
2019-04-26T07:43:57.026Z,1011.2697
2019-04-26T07:44:56.534Z,1011.2033
2019-04-26T07:45:56.027Z,1011.2065
2019-04-26T07:46:55.445Z,1011.2318
2019-04-26T07:47:08.402Z,1011.2268
2019-04-26T07:47:55.926Z,1011.2438
2019-04-26T07:49:08.061Z,1011.2254
2019-04-26T07:50:07.371Z,1011.3419
2019-04-26T07:51:06.474Z,1011.3085
2019-04-26T07:52:06.398Z,1011.3448
2019-04-26T07:53:05.716Z,1011.3867
2019-04-26T07:54:16.957Z,1011.4129
2019-04-26T07:55:16.492Z,1011.4079
2019-04-26T07:56:16.120Z,1011.4056
2019-04-26T07:57:15.528Z,1011.4098
2019-04-26T07:57:27.422Z,1011.4034
2019-04-26T07:58:26.952Z,1011.3701
2019-04-26T07:59:26.297Z,1011.3904
2019-04-26T08:00:25.599Z,1011.3248
2019-04-26T08:00:44.557Z,1011.3508
2019-04-26T08:01:26.163Z,1011.3392
2019-04-26T08:02:25.547Z,1011.3473
2019-04-26T08:02:37.390Z,1011.3016
2019-04-26T08:03:36.877Z,1011.2729
2019-04-26T08:04:36.239Z,1011.2798
2019-04-26T08:05:35.696Z,1011.2679
2019-04-26T08:06:46.867Z,1011.2234
2019-04-26T08:07:46.323Z,1011.1983
2019-04-26T08:08:45.837Z,1011.2299
2019-04-26T08:09:59.643Z,1011.1962
2019-04-26T08:10:45.553Z,1011.2257
2019-04-26T08:10:57.389Z,1011.2023
2019-04-26T08:11:45.551Z,1011.1713
2019-04-26T08:11:57.549Z,1011.2164
2019-04-26T08:12:45.553Z,1011.19
2019-04-26T08:12:57.385Z,1011.1574
2019-04-26T08:13:56.865Z,1011.2569
2019-04-26T08:14:56.269Z,1011.2831
2019-04-26T08:15:55.726Z,1011.346
2019-04-26T08:16:08.603Z,1011.3734
2019-04-26T08:16:56.034Z,1011.4331
2019-04-26T08:18:07.333Z,1011.3724
2019-04-26T08:19:07.021Z,1011.4288
2019-04-26T08:20:09.033Z,1011.4423
2019-04-26T08:21:11.632Z,1011.4754
2019-04-26T08:22:15.830Z,1011.4885
2019-04-26T08:22:55.657Z,1011.569
2019-04-26T08:23:13.073Z,1011.5226
2019-04-26T08:23:57.702Z,1011.5974
2019-04-26T08:24:56.669Z,1011.5999
2019-04-26T08:25:55.990Z,1011.6096
2019-04-26T08:27:09.684Z,1011.6182
2019-04-26T08:27:55.787Z,1011.6264
2019-04-26T08:29:08.407Z,1011.6266
2019-04-26T08:29:55.830Z,1011.632
2019-04-26T08:30:55.728Z,1011.6118
2019-04-26T08:32:08.548Z,1011.6287
2019-04-26T08:32:55.948Z,1011.6384
2019-04-26T08:34:08.527Z,1011.6784
2019-04-26T08:34:56.098Z,1011.6517
2019-04-26T08:35:55.476Z,1011.6166
2019-04-26T08:36:08.700Z,1011.635
2019-04-26T08:36:57.214Z,1011.6631
2019-04-26T08:37:56.475Z,1011.6671
2019-04-26T08:38:56.003Z,1011.6489
2019-04-26T08:39:55.477Z,1011.7154
2019-04-26T08:40:07.332Z,1011.7211
2019-04-26T08:41:08.089Z,1011.7462
2019-04-26T08:42:09.594Z,1011.7028
2019-04-26T08:42:57.296Z,1011.765
2019-04-26T08:43:45.643Z,1011.8359
2019-04-26T08:43:59.706Z,1011.8085
2019-04-26T08:44:46.122Z,1011.834
2019-04-26T08:46:01.463Z,1011.8456
2019-04-26T08:46:45.940Z,1011.8688
2019-04-26T08:47:57.292Z,1011.8421
2019-04-26T08:48:58.068Z,1011.8523
2019-04-26T08:49:57.219Z,1011.8412
2019-04-26T08:50:56.557Z,1011.8943
2019-04-26T08:51:57.396Z,1011.876
2019-04-26T08:52:57.905Z,1011.8912
2019-04-26T08:53:57.020Z,1011.9
2019-04-26T08:54:56.369Z,1011.8959
2019-04-26T08:55:55.819Z,1011.8635
2019-04-26T08:57:07.095Z,1011.9206
2019-04-26T08:58:06.652Z,1011.9021
2019-04-26T08:59:06.074Z,1011.8945
2019-04-26T09:00:05.475Z,1011.8976
2019-04-26T09:00:17.308Z,1011.9059
2019-04-26T09:01:16.782Z,1011.9174
2019-04-26T09:02:16.403Z,1011.8957
2019-04-26T09:03:15.805Z,1011.9105
2019-04-26T09:04:27.021Z,1011.9456
2019-04-26T09:05:26.673Z,1011.9238
2019-04-26T09:06:26.128Z,1011.9785
2019-04-26T09:07:25.560Z,1011.9968
2019-04-26T09:07:37.398Z,1011.9675
2019-04-26T09:08:39.152Z,1012.0451
2019-04-26T09:09:37.211Z,1012.0139
2019-04-26T09:10:39.194Z,1012.069
2019-04-26T09:11:36.860Z,1012.037
2019-04-26T09:12:36.327Z,1012.1109
2019-04-26T09:13:35.664Z,1012.1267
2019-04-26T09:14:46.923Z,1012.0574
2019-04-26T09:15:46.366Z,1012.0864
2019-04-26T09:16:50.283Z,1012.1123
2019-04-26T09:17:46.230Z,1012.0349
2019-04-26T09:18:52.307Z,1012.1001
2019-04-26T09:19:45.857Z,1012.1094
2019-04-26T09:20:57.165Z,1012.0734
2019-04-26T09:21:59.047Z,1012.0357
2019-04-26T09:23:03.718Z,1012.0515
2019-04-26T09:23:50.798Z,1012.0418
2019-04-26T09:24:46.067Z,1012.0054
2019-04-26T09:25:45.557Z,1012.0534
2019-04-26T09:25:59.167Z,1012.0659
2019-04-26T09:26:46.920Z,1012.0129
2019-04-26T09:27:46.434Z,1012.0163
2019-04-26T09:28:46.080Z,1012.0507
2019-04-26T09:30:00.458Z,1012.1082
2019-04-26T09:30:47.585Z,1012.1018
2019-04-26T09:31:46.106Z,1012.1231
2019-04-26T09:32:45.444Z,1012.1815
2019-04-26T09:32:58.195Z,1012.1706
2019-04-26T09:33:45.795Z,1012.2044
2019-04-26T09:34:57.106Z,1012.2842
2019-04-26T09:35:56.490Z,1012.3215
2019-04-26T09:36:55.787Z,1012.3483
2019-04-26T09:38:07.073Z,1012.2965
2019-04-26T09:39:08.172Z,1012.3329
2019-04-26T09:40:10.297Z,1012.3524
2019-04-26T09:40:56.190Z,1012.378
2019-04-26T09:42:09.633Z,1012.3449
2019-04-26T09:42:55.545Z,1012.3759
2019-04-26T09:43:10.346Z,1012.4019
2019-04-26T09:43:58.744Z,1012.3475
2019-04-26T09:44:56.914Z,1012.4138
2019-04-26T09:45:55.815Z,1012.4218
2019-04-26T09:47:07.039Z,1012.4968
2019-04-26T09:48:06.519Z,1012.462
2019-04-26T09:49:06.913Z,1012.5552
2019-04-26T09:50:06.608Z,1012.536
2019-04-26T09:51:06.037Z,1012.5616
2019-04-26T09:52:05.522Z,1012.5621
2019-04-26T09:52:17.373Z,1012.5714
2019-04-26T09:53:16.817Z,1012.5925
2019-04-26T09:54:16.164Z,1012.5387
2019-04-26T09:55:15.742Z,1012.5803
2019-04-26T09:56:27.066Z,1012.5614
2019-04-26T09:57:26.648Z,1012.6004
2019-04-26T09:58:26.736Z,1012.6063
2019-04-26T09:59:25.481Z,1012.6181
2019-04-26T09:59:39.938Z,1012.6281
2019-04-26T10:00:25.812Z,1012.5974
2019-04-26T10:01:37.070Z,1012.6232
2019-04-26T10:02:36.501Z,1012.6625
2019-04-26T10:03:35.898Z,1012.664
2019-04-26T10:04:47.225Z,1012.6607
2019-04-26T10:05:46.745Z,1012.697
2019-04-26T10:06:46.120Z,1012.7139
2019-04-26T10:07:45.585Z,1012.6776
2019-04-26T10:07:57.424Z,1012.6907
2019-04-26T10:08:56.827Z,1012.6785
2019-04-26T10:10:00.649Z,1012.6818
2019-04-26T10:10:45.678Z,1012.69
2019-04-26T10:11:57.015Z,1012.6871
2019-04-26T10:12:56.519Z,1012.6853
2019-04-26T10:13:55.829Z,1012.6509
2019-04-26T10:15:07.085Z,1012.601
2019-04-26T10:16:06.559Z,1012.5625